Time;durP1;ratioP1;P1;durP2;ratioP2;P2;SDS_P1;SDS_P2;PMS_P1;PMS_P2;Temp;Humidity;BMP_temperature;BMP_pressure;BME280_temperature;BME280_humidity;BME280_pressure;Samples;Min_cycle;Max_cycle;Signal;HPM_P1;HPM_P2
2022/01/28 00:03:24;;;;;;;15.60;1.60;;;;;;;3.21;89.75;102122.84;15278908;19;20029;-68
2022/01/28 00:08:26;;;;;;;12.82;1.90;;;;;;;3.09;91.11;102116.06;15272982;19;20077;-67
2022/01/28 00:13:40;;;;;;;8.73;1.35;;;;;;;3.10;91.60;102116.94;15271764;19;20102;-67
2022/01/28 00:39:56;;;;;;;14.85;2.28;;;;;;;3.21;89.26;102165.16;15272966;19;20593;-68
2022/01/28 00:44:58;;;;;;;13.77;1.90;;;;;;;3.27;89.96;102162.09;15268918;19;20503;-68
2022/01/28 00:49:59;;;;;;;12.52;1.75;;;;;;;3.16;90.68;102163.97;15271685;19;20014;-66
2022/01/28 00:55:02;;;;;;;19.70;1.70;;;;;;;3.30;90.21;102183.94;15268561;19;20014;-67
2022/01/28 01:00:09;;;;;;;9.63;2.08;;;;;;;3.36;91.54;102186.94;15271190;19;20010;-67
2022/01/28 01:05:11;;;;;;;13.10;1.77;;;;;;;3.17;92.58;102191.66;15276284;19;20080;-67
2022/01/28 01:10:13;;;;;;;19.15;2.17;;;;;;;3.07;93.05;102203.03;15271144;19;20031;-68
2022/01/28 01:15:19;;;;;;;9.50;1.88;;;;;;;2.99;93.48;102210.25;15281142;19;20420;-68
2022/01/28 01:25:27;;;;;;;16.65;2.05;;;;;;;3.11;94.25;102238.69;15281971;19;20074;-68
2022/01/28 01:30:32;;;;;;;11.02;1.30;;;;;;;3.05;96.52;102263.22;15283288;19;20011;-69
2022/01/28 01:35:35;;;;;;;10.07;1.40;;;;;;;2.98;95.66;102272.25;15280728;19;20017;-69
2022/01/28 01:40:52;;;;;;;9.77;1.70;;;;;;;2.89;97.17;102271.59;15286078;19;20017;-69
2022/01/28 01:56:20;;;;;;;6.60;1.40;;;;;;;2.70;96.39;102288.34;15277783;19;20086;-69
2022/01/28 02:01:22;;;;;;;11.80;1.77;;;;;;;2.63;97.21;102294.78;15282403;19;20517;-68
2022/01/28 02:06:24;;;;;;;13.25;1.52;;;;;;;2.63;97.82;102309.41;15286481;19;20054;-69
2022/01/28 02:11:26;;;;;;;14.23;1.63;;;;;;;2.66;96.90;102312.22;15284535;19;20086;-68
2022/01/28 02:16:28;;;;;;;11.07;1.52;;;;;;;2.69;96.96;102314.13;15277840;19;20355;-68
2022/01/28 02:21:42;;;;;;;16.60;2.35;;;;;;;2.77;97.01;102321.66;15280524;19;20046;-69
2022/01/28 02:26:44;;;;;;;10.52;1.90;;;;;;;2.74;97.13;102331.78;15273416;19;20015;-68
2022/01/28 02:31:46;;;;;;;17.00;2.05;;;;;;;2.74;97.12;102338.66;15281081;19;20019;-68
2022/01/28 02:36:48;;;;;;;15.77;2.30;;;;;;;2.77;97.60;102342.34;15278092;19;20026;-69
2022/01/28 02:41:54;;;;;;;18.95;2.72;;;;;;;2.77;97.39;102349.22;15279160;19;20634;-68
2022/01/28 02:47:00;;;;;;;8.98;1.75;;;;;;;2.72;96.96;102358.31;15275438;19;20418;-68
2022/01/28 02:52:03;;;;;;;17.20;2.53;;;;;;;2.72;96.12;102358.31;15282472;19;20078;-68
2022/01/28 02:57:06;;;;;;;23.08;2.20;;;;;;;2.80;94.92;102354.63;15277311;19;20026;-68
2022/01/28 03:02:08;;;;;;;18.88;2.58;;;;;;;2.87;93.83;102359.47;15284496;19;20019;-67
2022/01/28 03:07:09;;;;;;;18.23;2.03;;;;;;;3.01;92.34;102363.94;15278842;19;20561;-68
2022/01/28 03:12:15;;;;;;;16.98;2.30;;;;;;;3.04;92.48;102371.03;15280784;19;20106;-67
2022/01/28 03:22:32;;;;;;;22.27;2.45;;;;;;;3.10;90.75;102386.13;15273736;19;20014;-68
2022/01/28 03:32:54;;;;;;;16.15;2.90;;;;;;;3.09;89.73;102411.13;15277679;19;20086;-68
2022/01/28 03:38:07;;;;;;;24.15;2.00;;;;;;;3.24;87.30;102421.66;15276498;19;20010;-68
2022/01/28 03:43:09;;;;;;;10.93;1.85;;;;;;;3.27;87.75;102429.69;15274234;19;20042;-69
2022/01/28 03:48:11;;;;;;;14.05;1.52;;;;;;;3.24;86.34;102444.09;15276613;19;20077;-67
2022/01/28 03:53:12;;;;;;;22.08;2.28;;;;;;;3.37;85.19;102444.19;15275160;19;20459;-68
2022/01/28 03:58:14;;;;;;;14.55;1.77;;;;;;;3.44;83.95;102445.53;15276871;19;20069;-68
2022/01/28 04:13:50;;;;;;;8.57;1.50;;;;;;;3.69;83.07;102477.63;15272523;19;20035;-68
2022/01/28 04:18:51;;;;;;;15.85;2.20;;;;;;;3.59;85.21;102493.28;15274865;19;20335;-67
2022/01/28 04:23:53;;;;;;;9.18;1.98;;;;;;;3.37;87.21;102498.56;15271771;19;20082;-67
2022/01/28 04:28:55;;;;;;;14.02;1.33;;;;;;;3.23;88.05;102496.63;15275467;19;20070;-68
2022/01/28 04:33:59;;;;;;;14.07;2.00;;;;;;;3.14;87.36;102482.25;15270904;19;20085;-68
2022/01/28 04:39:11;;;;;;;11.45;2.13;;;;;;;3.19;86.21;102482.56;15273667;19;20035;-68
2022/01/28 04:44:20;;;;;;;12.85;1.85;;;;;;;3.27;85.16;102494.41;15270077;19;20045;-68
2022/01/28 04:49:33;;;;;;;8.13;1.88;;;;;;;3.28;85.08;102506.56;15282535;19;20086;-68
2022/01/28 04:54:59;;;;;;;11.88;1.60;;;;;;;3.25;85.92;102519.28;15286502;19;20035;-68
2022/01/28 05:00:21;;;;;;;9.38;1.60;;;;;;;3.34;85.86;102542.38;15290030;19;20031;-68
2022/01/28 05:05:58;;;;;;;7.10;1.52;;;;;;;3.24;88.95;102573.53;15183872;19;2004416;-68
2022/01/28 05:26:53;;;;;;;11.00;1.90;;;;;;;3.15;87.23;102604.78;15283975;19;20072;-68
2022/01/28 05:31:55;;;;;;;18.65;1.90;;;;;;;3.19;86.63;102607.72;15285964;19;20027;-68
2022/01/28 05:36:57;;;;;;;11.80;2.40;;;;;;;3.24;85.48;102602.00;15281095;19;20010;-68
2022/01/28 05:41:59;;;;;;;14.43;1.88;;;;;;;3.29;85.49;102611.94;15283716;19;20014;-68
2022/01/28 05:47:03;;;;;;;18.40;2.45;;;;;;;3.29;85.28;102608.47;15279958;19;20046;-68
2022/01/28 05:52:05;;;;;;;18.38;2.53;;;;;;;3.49;81.55;102620.31;15285116;19;20927;-68
2022/01/28 05:57:06;;;;;;;14.93;2.45;;;;;;;3.52;81.05;102630.91;15281666;19;20374;-68
2022/01/28 06:02:08;;;;;;;20.90;3.03;;;;;;;3.59;79.97;102645.19;15289465;19;20011;-67
2022/01/28 06:07:10;;;;;;;17.23;2.17;;;;;;;3.58;79.13;102654.66;15280916;19;20019;-68
2022/01/28 06:12:12;;;;;;;15.85;2.20;;;;;;;3.63;78.62;102665.38;15283502;19;20370;-68
2022/01/28 06:17:13;;;;;;;13.73;2.33;;;;;;;3.59;77.91;102664.25;15279484;19;20078;-67
2022/01/28 06:22:15;;;;;;;20.92;2.47;;;;;;;3.66;77.28;102676.91;15283673;19;20031;-67
2022/01/28 06:27:16;;;;;;;15.43;2.05;;;;;;;3.66;77.17;102676.91;15280742;19;20077;-68
2022/01/28 06:32:18;;;;;;;13.25;1.80;;;;;;;3.60;78.01;102691.94;15284760;19;20018;-68
2022/01/28 06:37:20;;;;;;;24.98;3.35;;;;;;;3.73;77.62;102714.53;15281235;19;20010;-68
2022/01/28 06:42:21;;;;;;;28.30;2.60;;;;;;;3.70;77.83;102706.50;15281445;19;20074;-67
2022/01/28 06:47:23;;;;;;;21.60;3.38;;;;;;;3.68;78.67;102711.59;15281983;19;20006;-67
2022/01/28 06:52:25;;;;;;;23.15;2.95;;;;;;;3.74;78.12;102705.97;15281009;19;20082;-68
2022/01/28 06:57:28;;;;;;;22.08;3.47;;;;;;;3.77;76.96;102718.22;15278270;19;20077;-68
2022/01/28 07:02:30;;;;;;;21.77;2.00;;;;;;;3.82;75.77;102719.50;15286558;19;20019;-68
2022/01/28 07:07:33;;;;;;;13.70;2.38;;;;;;;3.84;75.45;102736.06;15278794;19;20477;-68
2022/01/28 07:12:36;;;;;;;16.67;2.58;;;;;;;3.88;74.56;102748.47;15276834;19;20090;-68
2022/01/28 07:17:38;;;;;;;12.10;2.00;;;;;;;3.90;73.49;102770.22;15279857;19;20022;-68
2022/01/28 07:22:40;;;;;;;14.93;1.92;;;;;;;3.87;73.74;102765.72;15278662;19;20086;-67
2022/01/28 07:27:42;;;;;;;16.70;1.63;;;;;;;3.82;73.75;102776.50;15278570;19;20082;-67
2022/01/28 07:32:43;;;;;;;11.60;2.30;;;;;;;3.80;74.34;102779.00;15275777;19;20089;-68
2022/01/28 07:37:46;;;;;;;14.35;1.30;;;;;;;3.86;73.66;102778.56;15275987;19;20085;-68
2022/01/28 07:42:47;;;;;;;14.30;2.22;;;;;;;3.77;74.56;102772.66;15275127;19;20020;-68
2022/01/28 07:47:49;;;;;;;19.17;2.28;;;;;;;3.81;75.11;102782.47;15276536;19;20025;-68
2022/01/28 07:52:51;;;;;;;13.88;2.00;;;;;;;3.82;74.90;102787.78;15275729;19;20101;-67
2022/01/28 07:57:52;;;;;;;17.17;1.65;;;;;;;3.89;75.05;102790.06;15272427;19;20410;-68
2022/01/28 08:02:54;;;;;;;11.77;1.90;;;;;;;3.92;75.25;102793.66;15272681;19;20002;-68
2022/01/28 08:07:56;;;;;;;16.60;2.00;;;;;;;3.93;74.92;102813.63;15272205;19;20018;-68
2022/01/28 08:13:00;;;;;;;13.30;1.85;;;;;;;3.94;75.16;102816.31;15272975;19;20007;-68
2022/01/28 08:18:03;;;;;;;22.40;2.70;;;;;;;3.97;75.43;102824.34;15273010;19;20085;-68
2022/01/28 08:23:05;;;;;;;13.00;1.80;;;;;;;4.01;75.88;102830.69;15268929;19;20034;-68
2022/01/28 08:28:07;;;;;;;17.83;1.70;;;;;;;4.02;76.32;102845.41;15274532;19;20024;-68
2022/01/28 08:33:08;;;;;;;14.73;2.05;;;;;;;4.08;77.18;102853.66;15271474;19;20423;-68
2022/01/28 08:38:16;;;;;;;20.42;2.35;;;;;;;4.15;77.14;102855.06;15271830;19;20424;-68
2022/01/28 08:43:17;;;;;;;18.20;2.63;;;;;;;4.21;77.63;102871.06;15270822;19;20014;-67
2022/01/28 08:48:19;;;;;;;8.13;1.90;;;;;;;4.39;77.12;102872.47;15273248;19;20015;-68
2022/01/28 08:53:21;;;;;;;21.20;2.97;;;;;;;4.50;77.24;102880.16;15271056;19;20597;-68
2022/01/28 08:58:23;;;;;;;17.38;1.77;;;;;;;4.67;76.81;102878.81;15272697;19;20078;-67
2022/01/28 09:03:24;;;;;;;15.15;2.38;;;;;;;4.87;75.49;102893.31;15270448;19;20478;-68
2022/01/28 09:08:26;;;;;;;6.97;1.33;;;;;;;4.78;75.84;102898.72;15274349;19;20011;-68
2022/01/28 09:13:37;;;;;;;16.73;3.20;;;;;;;4.69;76.05;102919.69;15272557;19;20015;-68
2022/01/28 09:18:39;;;;;;;16.42;1.65;;;;;;;4.58;76.04;102921.47;15271960;19;20387;-68
2022/01/28 09:23:41;;;;;;;15.45;1.98;;;;;;;4.54;76.74;102928.91;15267617;19;20178;-68
2022/01/28 09:28:43;;;;;;;16.58;2.17;;;;;;;4.54;76.55;102935.00;15269872;19;20031;-67
2022/01/28 09:33:45;;;;;;;16.90;2.55;;;;;;;4.64;76.85;102936.59;15273303;19;20024;-67
2022/01/28 09:38:46;;;;;;;23.63;2.25;;;;;;;4.82;77.30;102946.53;15285802;19;20011;-67
2022/01/28 09:43:48;;;;;;;15.50;1.88;;;;;;;4.86;75.89;102961.56;15280738;19;20017;-67
2022/01/28 09:48:50;;;;;;;17.23;3.03;;;;;;;4.90;77.03;102971.41;15281405;19;20006;-68
2022/01/28 09:53:52;;;;;;;16.63;2.17;;;;;;;5.04;76.00;102991.50;15284431;19;20025;-67
2022/01/28 09:58:54;;;;;;;21.38;2.50;;;;;;;5.02;75.73;102989.59;15286202;19;20422;-67
2022/01/28 10:04:15;;;;;;;15.35;1.95;;;;;;;5.21;75.69;102989.25;15288584;19;20018;-68
2022/01/28 10:09:19;;;;;;;11.30;2.20;;;;;;;5.36;75.06;102981.69;15286055;19;20444;-68
2022/01/28 10:14:26;;;;;;;17.08;2.58;;;;;;;5.40;75.02;102992.44;15280997;19;20006;-68
2022/01/28 10:19:40;;;;;;;16.50;1.90;;;;;;;5.38;73.74;102999.22;15284420;19;20015;-68
2022/01/28 10:24:42;;;;;;;16.55;2.40;;;;;;;5.42;75.19;102985.66;15279142;19;20024;-67
2022/01/28 10:29:43;;;;;;;12.00;2.35;;;;;;;5.54;73.79;102992.53;15283936;19;20043;-67
2022/01/28 10:34:47;;;;;;;12.90;2.08;;;;;;;5.56;73.11;103001.38;15280928;19;20010;-68
2022/01/28 10:39:52;;;;;;;25.80;2.40;;;;;;;5.64;72.59;102997.63;15282891;19;20031;-68
2022/01/28 10:45:00;;;;;;;12.65;2.22;;;;;;;5.75;73.15;103011.38;15277089;19;20027;-68
2022/01/28 10:50:22;;;;;;;22.93;2.33;;;;;;;5.74;73.31;103014.81;15284091;19;20014;-68
2022/01/28 10:55:23;;;;;;;12.90;1.90;;;;;;;5.68;73.32;103030.84;15174239;19;2004245;-67
2022/01/28 11:00:37;;;;;;;18.63;2.20;;;;;;;5.78;74.24;103011.59;15281357;19;20022;-65
2022/01/28 11:05:40;;;;;;;17.02;1.83;;;;;;;5.72;73.39;103016.38;15282706;19;20210;-68
2022/01/28 11:10:43;;;;;;;19.48;3.17;;;;;;;5.65;72.89;103025.44;15279492;19;20077;-68
2022/01/28 11:15:45;;;;;;;19.38;3.17;;;;;;;5.67;72.82;103021.22;15279557;19;20081;-67
2022/01/28 11:20:54;;;;;;;13.75;2.60;;;;;;;5.69;73.22;103037.88;15279889;19;20018;-67
2022/01/28 11:25:59;;;;;;;14.80;3.17;;;;;;;5.74;72.29;103028.69;15277648;19;20515;-68
2022/01/28 11:31:02;;;;;;;15.13;2.28;;;;;;;5.92;72.50;103030.81;15281688;19;20010;-68
2022/01/28 11:36:04;;;;;;;19.70;3.13;;;;;;;5.98;70.13;103021.78;15279710;19;20496;-67
2022/01/28 11:41:10;;;;;;;17.73;3.25;;;;;;;5.98;71.44;103013.09;15278608;19;20471;-67
2022/01/28 11:46:30;;;;;;;18.55;2.67;;;;;;;5.98;74.15;103023.50;15274982;19;20106;-67
2022/01/28 11:51:32;;;;;;;9.40;2.27;;;;;;;6.05;73.91;103017.94;15277601;19;20577;-67
2022/01/28 11:56:40;;;;;;;16.08;2.53;;;;;;;6.25;74.50;103019.34;15275291;19;20498;-67
2022/01/28 12:01:45;;;;;;;14.73;2.08;;;;;;;6.33;70.71;103009.47;15278770;19;20039;-67
2022/01/28 12:06:53;;;;;;;18.42;1.77;;;;;;;6.28;68.65;103009.16;15276995;19;20018;-67
2022/01/28 12:11:54;;;;;;;9.13;1.77;;;;;;;6.24;68.60;103004.53;15275456;19;20019;-67
2022/01/28 12:17:00;;;;;;;10.13;2.15;;;;;;;6.11;67.50;102996.63;15274358;19;20071;-68
2022/01/28 12:22:08;;;;;;;15.38;1.70;;;;;;;6.19;66.91;103000.72;15276434;19;20018;-68
2022/01/28 12:27:13;;;;;;;12.82;1.42;;;;;;;6.09;67.31;102998.25;15273936;19;20023;-68
2022/01/28 12:32:23;;;;;;;14.30;1.85;;;;;;;6.16;67.15;103001.38;15277150;19;20803;-68
2022/01/28 12:37:28;;;;;;;17.52;1.65;;;;;;;6.15;68.20;102994.38;15274503;19;20010;-68
2022/01/28 12:42:33;;;;;;;10.93;1.25;;;;;;;6.21;68.10;103008.63;15272629;19;20031;-68
2022/01/28 12:47:36;;;;;;;13.57;2.47;;;;;;;6.19;68.80;103001.59;15272713;19;20011;-68
2022/01/28 12:52:38;;;;;;;13.05;1.88;;;;;;;6.05;72.25;102999.75;15272598;19;20007;-67
2022/01/28 12:57:45;;;;;;;19.52;3.15;;;;;;;5.92;72.24;102999.63;15273561;19;20019;-68
2022/01/28 13:02:51;;;;;;;11.73;1.55;;;;;;;6.01;71.88;103000.31;15280220;19;20028;-66
2022/01/28 13:13:16;;;;;;;17.23;2.15;;;;;;;6.10;72.89;102994.84;15288007;19;20018;-68
2022/01/28 13:18:18;;;;;;;14.68;2.08;;;;;;;6.12;73.31;102988.94;15288541;19;20018;-68
2022/01/28 13:23:20;;;;;;;15.85;2.22;;;;;;;6.15;72.01;102994.38;15286493;19;20014;-68
2022/01/28 13:28:22;;;;;;;18.15;2.42;;;;;;;6.09;72.21;102983.53;15288959;19;20038;-67
2022/01/28 13:33:29;;;;;;;23.88;2.03;;;;;;;6.12;71.95;102983.75;15283800;19;20025;-68
2022/01/28 13:38:39;;;;;;;20.98;2.28;;;;;;;5.97;68.25;102980.06;15285743;19;20011;-67
2022/01/28 13:43:40;;;;;;;21.00;2.10;;;;;;;5.85;69.45;102987.84;15283480;19;20019;-67
2022/01/28 13:48:47;;;;;;;21.40;1.70;;;;;;;5.95;70.13;102985.13;15287197;19;20082;-68
2022/01/28 13:59:24;;;;;;;15.27;2.40;;;;;;;5.79;69.27;102988.31;15286159;19;20042;-67
2022/01/28 14:04:43;;;;;;;12.05;2.15;;;;;;;5.68;70.40;102985.75;15287400;19;20061;-68
2022/01/28 14:09:56;;;;;;;12.68;1.95;;;;;;;5.68;70.84;102989.25;15283723;19;20041;-67
2022/01/28 14:15:10;;;;;;;10.15;1.58;;;;;;;5.54;72.31;102992.53;15281474;19;20025;-68
2022/01/28 14:20:11;;;;;;;14.68;2.13;;;;;;;5.69;72.83;102984.94;15283493;19;20344;-68
2022/01/28 14:25:13;;;;;;;16.60;3.58;;;;;;;5.79;71.55;102993.50;15280692;19;20804;-67
2022/01/28 14:30:22;;;;;;;42.50;11.07;;;;;;;5.77;70.99;102995.13;15282622;19;20550;-67
2022/01/28 14:35:23;;;;;;;13.15;2.40;;;;;;;5.68;70.38;102998.75;15281632;19;20034;-67
2022/01/28 14:40:25;;;;;;;15.07;2.55;;;;;;;5.48;70.98;102996.50;15283544;19;20031;-67
2022/01/28 14:45:27;;;;;;;12.23;1.92;;;;;;;5.37;71.18;102994.81;15281179;19;20078;-68
2022/01/28 14:50:28;;;;;;;14.90;2.08;;;;;;;5.30;72.42;102995.16;15284174;19;20027;-68
2022/01/28 14:55:30;;;;;;;16.15;2.30;;;;;;;5.34;73.02;103017.06;15280199;19;20444;-68
2022/01/28 15:00:32;;;;;;;14.60;2.15;;;;;;;5.33;73.94;103008.38;15285007;19;20018;-66
2022/01/28 15:05:34;;;;;;;13.13;2.13;;;;;;;5.29;74.54;103004.63;15296631;19;20042;-68
2022/01/28 15:10:40;;;;;;;11.40;2.40;;;;;;;5.23;72.26;103016.28;15280865;19;20917;-67
2022/01/28 15:15:41;;;;;;;16.90;2.40;;;;;;;5.10;73.37;103012.78;15280156;19;20035;-67
2022/01/28 15:20:43;;;;;;;12.20;2.03;;;;;;;5.02;73.48;103003.47;15281896;19;20033;-67
2022/01/28 15:25:45;;;;;;;14.00;1.98;;;;;;;4.89;73.77;103014.63;15277739;19;20006;-68
2022/01/28 15:36:07;;;;;;;12.23;2.08;;;;;;;4.86;75.16;103027.38;15280218;19;20018;-67
2022/01/28 15:41:10;;;;;;;15.90;1.92;;;;;;;4.78;74.80;103019.00;15282021;19;20421;-67
2022/01/28 15:46:11;;;;;;;18.05;2.35;;;;;;;4.74;75.53;103018.66;15279962;19;20031;-67
2022/01/28 15:51:13;;;;;;;9.68;1.52;;;;;;;4.73;76.00;103017.75;15283200;19;20018;-67
2022/01/28 15:56:17;;;;;;;19.92;2.17;;;;;;;4.73;76.20;103009.97;15280265;19;20041;-68
2022/01/28 16:01:24;;;;;;;11.25;1.83;;;;;;;4.75;75.90;103016.16;15281521;19;20078;-66
2022/01/28 16:06:26;;;;;;;17.05;2.47;;;;;;;4.78;75.52;102998.22;15279828;19;20050;-68
2022/01/28 16:11:34;;;;;;;15.65;1.77;;;;;;;4.65;76.28;102990.28;15278018;19;20011;-68
2022/01/28 16:21:56;;;;;;;14.00;1.63;;;;;;;4.52;77.62;103006.63;15276765;19;20030;-68
2022/01/28 16:27:00;;;;;;;13.88;2.65;;;;;;;4.48;77.43;102995.91;15270723;19;20015;-68
2022/01/28 16:32:02;;;;;;;13.63;2.17;;;;;;;4.46;77.98;102984.47;15274948;19;20490;-68
2022/01/28 16:37:04;;;;;;;9.30;2.47;;;;;;;4.40;78.06;102974.56;15270017;19;20037;-68
2022/01/28 16:42:09;;;;;;;19.45;2.92;;;;;;;4.33;78.98;102980.06;15274043;19;20018;-68
2022/01/28 16:47:12;;;;;;;12.45;1.98;;;;;;;4.31;78.61;102972.16;15282319;19;20031;-68
2022/01/28 16:52:18;;;;;;;20.23;2.40;;;;;;;4.19;79.04;102979.00;15287505;19;20015;-68
2022/01/28 16:57:20;;;;;;;11.95;2.30;;;;;;;4.16;79.64;102966.69;15284081;19;20041;-68
2022/01/28 17:02:22;;;;;;;16.27;2.20;;;;;;;4.10;79.42;102971.38;15295087;19;20621;-68
2022/01/28 17:07:25;;;;;;;13.20;2.88;;;;;;;4.15;79.11;102970.03;15283878;19;20019;-69
2022/01/28 17:17:29;;;;;;;13.73;2.03;;;;;;;4.06;79.14;102965.03;15282750;19;20213;-69
2022/01/28 17:22:30;;;;;;;8.80;1.80;;;;;;;4.07;79.64;102961.66;15284767;19;20844;-68
2022/01/28 17:27:32;;;;;;;16.58;3.20;;;;;;;3.96;80.35;102959.91;15281771;19;20558;-69
2022/01/28 17:32:35;;;;;;;12.70;2.53;;;;;;;3.90;80.70;102964.59;15284971;19;20013;-68
2022/01/28 17:37:37;;;;;;;16.95;2.65;;;;;;;3.84;80.98;102957.28;15278947;19;20855;-69
2022/01/28 17:42:40;;;;;;;21.35;2.25;;;;;;;3.82;81.71;102942.38;15284845;19;20077;-68
2022/01/28 17:47:59;;;;;;;13.23;2.00;;;;;;;3.85;81.32;102943.50;15281100;19;20018;-68
2022/01/28 17:53:01;;;;;;;17.20;2.47;;;;;;;3.79;81.89;102931.78;15283268;19;20561;-69
2022/01/28 17:58:05;;;;;;;19.80;2.42;;;;;;;3.81;82.41;102925.00;15281669;19;20037;-69
2022/01/28 18:03:08;;;;;;;23.80;3.47;;;;;;;3.74;82.15;102914.94;15287242;19;20548;-69
2022/01/28 18:08:10;;;;;;;10.88;2.30;;;;;;;3.72;82.65;102905.38;15282834;19;20034;-68
2022/01/28 18:13:13;;;;;;;10.73;2.38;;;;;;;3.68;82.74;102895.53;15281629;19;20110;-67
2022/01/28 18:18:15;;;;;;;8.10;1.73;;;;;;;3.76;82.66;102884.88;15281816;19;20426;-66
2022/01/28 18:23:17;;;;;;;11.23;1.85;;;;;;;3.71;83.04;102868.97;15280437;19;20095;-66
2022/01/28 18:28:18;;;;;;;12.43;2.50;;;;;;;3.61;83.60;102864.75;15282889;19;20246;-66
2022/01/28 18:33:20;;;;;;;15.68;2.80;;;;;;;3.63;83.86;102858.00;15280045;19;20018;-67
2022/01/28 18:38:22;;;;;;;18.90;2.67;;;;;;;3.61;83.90;102828.47;15280271;19;20077;-66
2022/01/28 18:43:33;;;;;;;18.38;2.80;;;;;;;3.63;84.27;102820.81;15278894;19;20113;-66
2022/01/28 18:48:37;;;;;;;10.27;1.65;;;;;;;3.59;84.59;102817.09;15281322;19;20082;-66
2022/01/28 18:53:38;;;;;;;16.08;2.17;;;;;;;3.59;85.01;102792.88;15277776;19;20021;-66
2022/01/28 18:58:40;;;;;;;13.65;2.15;;;;;;;3.54;85.05;102784.72;15279496;19;20033;-66
2022/01/28 19:03:42;;;;;;;20.35;2.50;;;;;;;3.54;85.32;102775.31;15288696;19;20514;-68
2022/01/28 19:08:43;;;;;;;11.52;2.33;;;;;;;3.52;85.17;102775.97;15277134;19;20014;-67
2022/01/28 19:13:45;;;;;;;15.50;2.30;;;;;;;3.53;85.51;102767.41;15277286;19;20871;-68
2022/01/28 19:18:47;;;;;;;16.35;2.05;;;;;;;3.46;85.63;102758.25;15280611;19;20199;-68
2022/01/28 19:23:48;;;;;;;12.32;1.92;;;;;;;3.44;85.87;102754.66;15277048;19;20018;-67
2022/01/28 19:28:50;;;;;;;16.60;2.22;;;;;;;3.40;86.10;102751.69;15277352;19;20078;-68
2022/01/28 19:33:52;;;;;;;17.58;2.33;;;;;;;3.33;86.50;102751.22;15277137;19;20018;-67
2022/01/28 19:38:53;;;;;;;14.23;2.20;;;;;;;3.33;86.44;102740.88;15278620;19;20494;-67
2022/01/28 19:43:55;;;;;;;22.15;2.72;;;;;;;3.29;86.87;102744.00;15275598;19;20090;-68
2022/01/28 19:49:06;;;;;;;11.80;2.30;;;;;;;3.25;87.02;102741.94;15275279;19;20032;-67
2022/01/28 19:54:09;;;;;;;11.73;1.88;;;;;;;3.24;87.39;102745.31;15273964;19;20018;-67
2022/01/28 19:59:14;;;;;;;24.52;2.97;;;;;;;3.22;87.27;102746.88;15276398;19;20014;-67
2022/01/28 20:04:15;;;;;;;10.88;2.00;;;;;;;3.21;87.65;102739.00;15289144;19;20025;-67
2022/01/28 20:09:20;;;;;;;10.60;2.22;;;;;;;3.27;87.30;102718.75;15276643;19;20082;-68
2022/01/28 20:14:22;;;;;;;12.75;2.40;;;;;;;3.30;87.22;102734.53;15273059;19;20414;-68
2022/01/28 20:19:23;;;;;;;13.27;2.42;;;;;;;3.39;86.79;102726.56;15273703;19;20014;-67
2022/01/28 20:24:27;;;;;;;11.00;2.20;;;;;;;3.44;86.77;102714.88;15271064;19;20038;-66
2022/01/28 20:29:29;;;;;;;10.95;2.72;;;;;;;3.54;86.68;102710.53;15274959;19;20015;-67
2022/01/28 20:34:30;;;;;;;10.70;2.30;;;;;;;3.58;86.62;102693.53;15271832;19;20806;-67
2022/01/28 20:39:32;;;;;;;18.65;2.55;;;;;;;3.60;86.93;102672.91;15273534;19;20021;-67
2022/01/28 20:44:34;;;;;;;12.70;2.47;;;;;;;3.60;86.91;102654.78;15271442;19;20020;-67
2022/01/28 20:49:40;;;;;;;15.82;3.03;;;;;;;3.61;87.47;102652.31;15274473;19;20755;-68
2022/01/28 20:54:41;;;;;;;12.07;2.60;;;;;;;3.69;87.46;102653.81;15271231;19;20365;-68
2022/01/28 20:59:43;;;;;;;9.60;2.67;;;;;;;3.68;87.89;102645.91;15273879;19;20038;-68
2022/01/28 21:04:47;;;;;;;22.73;3.80;;;;;;;3.71;88.35;102639.25;15282921;19;20026;-68
2022/01/28 21:09:48;;;;;;;13.43;4.07;;;;;;;3.89;88.60;102621.59;15271548;19;20082;-68
2022/01/28 21:14:50;;;;;;;17.50;4.95;;;;;;;3.96;89.02;102625.50;15267853;19;20708;-67
2022/01/28 21:19:52;;;;;;;21.88;4.95;;;;;;;4.07;89.35;102609.06;15270738;19;20099;-67
2022/01/28 21:24:54;;;;;;;19.45;5.95;;;;;;;4.15;89.49;102611.31;15268039;19;20018;-68
2022/01/28 21:29:55;;;;;;;18.17;6.60;;;;;;;4.22;89.74;102619.66;15276285;19;20021;-68
2022/01/28 21:34:59;;;;;;;25.92;6.50;;;;;;;4.28;90.14;102602.72;15282821;19;20545;-67
2022/01/28 21:40:01;;;;;;;20.88;7.47;;;;;;;4.34;90.13;102596.28;15285734;19;20391;-68
2022/01/28 21:45:07;;;;;;;17.70;6.97;;;;;;;4.34;90.44;102588.50;15283012;19;20014;-68
2022/01/28 21:50:09;;;;;;;19.88;7.28;;;;;;;4.32;90.54;102574.50;15286226;19;20019;-67
2022/01/28 21:55:10;;;;;;;20.88;8.25;;;;;;;4.35;91.00;102585.09;15281338;19;20085;-68
2022/01/28 22:00:13;;;;;;;23.13;8.95;;;;;;;4.40;91.14;102565.59;15284707;19;20022;-67
2022/01/28 22:05:18;;;;;;;19.23;9.75;;;;;;;4.45;90.94;102546.88;15291023;19;20010;-67
2022/01/28 22:10:20;;;;;;;25.42;10.80;;;;;;;4.48;91.17;102539.31;15283707;19;20015;-67
2022/01/28 22:15:21;;;;;;;25.88;10.45;;;;;;;4.47;91.31;102529.72;15280671;19;20050;-67
2022/01/28 22:20:23;;;;;;;23.75;10.90;;;;;;;4.51;91.44;102524.84;15285411;19;20074;-67
2022/01/28 22:25:25;;;;;;;27.05;12.48;;;;;;;4.57;91.98;102524.38;15279883;19;20006;-68
2022/01/28 22:30:27;;;;;;;26.40;12.43;;;;;;;4.64;92.06;102516.22;15282858;19;20605;-68
2022/01/28 22:35:28;;;;;;;27.52;12.75;;;;;;;4.65;92.47;102506.72;15279067;19;20078;-67
2022/01/28 22:40:30;;;;;;;29.80;14.13;;;;;;;4.68;92.65;102487.06;15279195;19;20809;-67
2022/01/28 22:45:32;;;;;;;28.90;14.23;;;;;;;4.73;92.86;102496.09;15280094;19;20082;-68
2022/01/28 22:50:33;;;;;;;29.98;13.77;;;;;;;4.76;93.01;102478.13;15283646;19;20081;-67
2022/01/28 22:55:35;;;;;;;32.97;12.90;;;;;;;4.72;93.41;102464.84;15277569;19;20017;-67
2022/01/28 23:00:37;;;;;;;30.90;15.00;;;;;;;4.75;93.15;102459.84;15282772;19;20019;-66
2022/01/28 23:05:42;;;;;;;36.38;14.93;;;;;;;4.71;93.55;102442.28;15285687;19;20026;-67
2022/01/28 23:10:44;;;;;;;30.65;13.63;;;;;;;4.72;93.33;102426.81;15282290;19;20085;-68
2022/01/28 23:15:56;;;;;;;31.08;15.43;;;;;;;4.78;93.07;102406.44;15279153;19;20078;-67
2022/01/28 23:20:58;;;;;;;37.40;15.55;;;;;;;4.84;93.24;102403.38;15282222;19;20085;-67
2022/01/28 23:25:59;;;;;;;33.63;15.18;;;;;;;4.83;93.30;102392.88;15277281;19;20014;-68
2022/01/28 23:31:01;;;;;;;32.35;16.13;;;;;;;4.84;93.42;102371.34;15280587;19;20011;-68
2022/01/28 23:36:03;;;;;;;33.95;15.93;;;;;;;4.85;93.71;102371.44;15274766;19;20024;-67
2022/01/28 23:41:09;;;;;;;37.17;15.13;;;;;;;4.90;93.58;102354.44;15278211;19;20039;-67
2022/01/28 23:46:11;;;;;;;32.80;16.38;;;;;;;4.93;93.71;102348.56;15276059;19;20018;-67
2022/01/28 23:51:13;;;;;;;37.38;17.40;;;;;;;5.01;93.62;102333.47;15277500;19;20081;-67
2022/01/28 23:56:15;;;;;;;41.22;19.33;;;;;;;5.01;93.63;102331.78;15275304;19;20085;-68
